createdAt,value
2023-01-24T00:00:48.069Z,176.50
2023-01-24T00:03:14.914Z,164.25
2023-01-24T00:05:43.542Z,161.25
2023-01-24T00:08:13.500Z,157.00
2023-01-24T00:10:40.802Z,134.25
2023-01-24T00:13:08.183Z,191.75
2023-01-24T00:15:35.057Z,214.25
2023-01-24T00:18:02.116Z,208.50
2023-01-24T00:20:28.931Z,207.25
2023-01-24T00:22:55.757Z,194.00
2023-01-24T00:25:23.611Z,202.75
2023-01-24T00:27:50.779Z,194.25
2023-01-24T00:30:17.817Z,208.50
2023-01-24T00:32:45.083Z,175.50
2023-01-24T00:35:11.883Z,191.00
2023-01-24T00:37:38.851Z,182.25
2023-01-24T00:40:06.167Z,111.50
2023-01-24T00:42:32.898Z,92.50
2023-01-24T00:44:59.885Z,151.25
2023-01-24T00:47:26.585Z,151.25
2023-01-24T00:49:56.093Z,80.50
2023-01-24T00:52:24.519Z,92.50
2023-01-24T00:54:51.504Z,115.50
2023-01-24T00:57:18.365Z,113.75
2023-01-24T00:59:45.141Z,95.00
2023-01-24T01:02:11.951Z,64.00
2023-01-24T01:04:38.695Z,68.25
2023-01-24T01:07:05.488Z,52.00
2023-01-24T01:09:32.701Z,71.50
2023-01-24T01:11:59.623Z,62.50
2023-01-24T01:14:26.586Z,79.25
2023-01-24T01:16:53.355Z,57.25
2023-01-24T01:19:20.438Z,58.00
2023-01-24T01:21:50.874Z,73.75
2023-01-24T01:24:17.936Z,74.00
2023-01-24T01:26:46.082Z,59.50
2023-01-24T01:29:12.903Z,52.75
2023-01-24T01:31:39.757Z,19.00
2023-01-24T01:34:06.762Z,29.25
2023-01-24T01:36:33.515Z,17.00
2023-01-24T01:39:00.463Z,25.50
2023-01-24T01:41:27.355Z,22.00
2023-01-24T01:44:12.966Z,18.00
2023-01-24T01:46:51.202Z,12.67
2023-01-24T01:49:25.489Z,14.33
2023-01-24T01:51:56.789Z,10.33
2023-01-24T01:54:32.344Z,17.50
2023-01-24T01:57:08.614Z,14.33
2023-01-24T01:59:40.934Z,15.33
2023-01-24T02:02:09.820Z,13.33
2023-01-24T02:04:39.534Z,13.67
2023-01-24T02:07:11.360Z,11.33
2023-01-24T02:09:43.713Z,12.00
2023-01-24T02:12:16.451Z,14.00
2023-01-24T02:15:03.435Z,13.00
2023-01-24T02:17:31.900Z,11.33
2023-01-24T02:20:01.598Z,13.00
2023-01-24T02:22:47.829Z,14.00
2023-01-24T02:25:43.163Z,13.00
2023-01-24T02:28:10.349Z,12.33
2023-01-24T02:30:38.383Z,22.00
2023-01-24T02:33:20.848Z,17.50
2023-01-24T02:35:48.142Z,19.00
2023-01-24T02:38:23.602Z,17.67
2023-01-24T02:40:54.466Z,14.00
2023-01-24T02:43:26.526Z,12.33
2023-01-24T02:45:53.442Z,4.67
2023-01-24T02:48:20.176Z,10.33
2023-01-24T02:51:05.426Z,9.00
2023-01-24T02:53:32.585Z,9.67
2023-01-24T02:56:24.699Z,7.00
2023-01-24T02:58:52.374Z,11.00
2023-01-24T03:01:21.607Z,9.00
2023-01-24T03:03:53.600Z,13.00
2023-01-24T03:06:21.462Z,16.33
2023-01-24T03:08:48.300Z,21.00
2023-01-24T03:11:31.289Z,22.75
2023-01-24T03:14:16.601Z,28.50
2023-01-24T03:17:02.206Z,30.00
2023-01-24T03:19:47.812Z,28.75
2023-01-24T03:22:33.050Z,30.50
2023-01-24T03:25:18.499Z,25.25
2023-01-24T03:28:04.039Z,30.25
2023-01-24T03:30:51.936Z,29.25
2023-01-24T03:33:37.301Z,28.50
2023-01-24T03:36:07.609Z,37.50
2023-01-24T03:38:54.621Z,39.50
2023-01-24T03:41:22.803Z,17.75
2023-01-24T03:43:49.670Z,23.00
2023-01-24T03:46:16.605Z,20.00
2023-01-24T03:48:50.004Z,33.50
2023-01-24T03:51:36.693Z,44.00
2023-01-24T03:54:03.664Z,44.50
2023-01-24T03:56:50.881Z,35.25
2023-01-24T03:59:19.528Z,27.00
2023-01-24T04:01:46.560Z,26.75
2023-01-24T04:04:46.690Z,20.75
2023-01-24T04:07:25.781Z,15.67
2023-01-24T04:09:56.032Z,21.00
2023-01-24T04:12:22.770Z,26.50
2023-01-24T04:14:49.702Z,49.75
2023-01-24T04:17:16.579Z,33.50
2023-01-24T04:19:47.782Z,22.75
2023-01-24T04:22:16.639Z,7.00
2023-01-24T04:24:45.713Z,8.00
2023-01-24T04:27:13.264Z,11.00
2023-01-24T04:29:50.582Z,19.50
2023-01-24T04:32:17.391Z,16.50
2023-01-24T04:34:51.593Z,14.33
2023-01-24T04:37:28.173Z,12.33
2023-01-24T04:39:55.080Z,7.00
2023-01-24T04:42:22.367Z,6.00
2023-01-24T04:44:49.343Z,7.67
2023-01-24T04:47:16.243Z,7.00
2023-01-24T04:49:43.875Z,9.00
2023-01-24T04:52:15.988Z,12.00
2023-01-24T04:54:54.779Z,5.67
2023-01-24T04:57:21.737Z,8.67
2023-01-24T04:59:48.832Z,14.00
2023-01-24T05:02:16.388Z,7.33
2023-01-24T05:04:44.969Z,7.00
2023-01-24T05:07:13.140Z,2.00
2023-01-24T05:09:42.726Z,6.00
2023-01-24T05:12:11.831Z,6.50
2023-01-24T05:14:38.819Z,5.67
2023-01-24T05:17:06.259Z,14.50
2023-01-24T05:19:35.239Z,9.50
2023-01-24T05:22:02.940Z,6.50
2023-01-24T05:24:35.555Z,5.33
2023-01-24T05:27:02.439Z,12.00
2023-01-24T05:29:30.994Z,8.67
2023-01-24T05:32:00.547Z,14.00
2023-01-24T05:34:27.479Z,78.25
2023-01-24T05:36:54.594Z,18.25
2023-01-24T05:39:22.603Z,21.25
2023-01-24T05:41:49.886Z,16.25
2023-01-24T05:44:19.322Z,12.00
2023-01-24T05:46:48.494Z,5.33
2023-01-24T05:49:19.531Z,16.33
2023-01-24T05:51:47.567Z,12.25
2023-01-24T05:54:20.423Z,35.75
2023-01-24T05:56:54.900Z,51.00
2023-01-24T05:59:21.797Z,27.50
2023-01-24T06:01:48.572Z,24.25
2023-01-24T06:04:16.244Z,18.75
2023-01-24T06:06:43.713Z,26.25
2023-01-24T06:09:10.619Z,46.25
2023-01-24T06:11:38.646Z,19.00
2023-01-24T06:14:11.003Z,20.00
2023-01-24T06:16:37.797Z,28.75
2023-01-24T06:19:04.782Z,9.00
2023-01-24T06:21:44.951Z,7.00
2023-01-24T06:24:24.675Z,43.25
2023-01-24T06:27:10.558Z,19.50
2023-01-24T06:29:37.649Z,14.25
2023-01-24T06:32:25.257Z,21.00
2023-01-24T06:35:21.069Z,22.25
2023-01-24T06:37:49.780Z,21.00
2023-01-24T06:40:19.923Z,20.75
2023-01-24T06:42:47.638Z,23.25
2023-01-24T06:45:14.950Z,29.25
2023-01-24T06:47:41.992Z,39.25
2023-01-24T06:50:15.647Z,36.75
2023-01-24T06:52:42.454Z,37.50
2023-01-24T06:55:09.343Z,49.25
2023-01-24T06:57:36.066Z,37.00
2023-01-24T07:00:04.681Z,37.00
2023-01-24T07:02:31.584Z,54.00
2023-01-24T07:04:58.408Z,41.00
2023-01-24T07:07:25.456Z,32.00
2023-01-24T07:09:52.245Z,36.75
2023-01-24T07:12:19.006Z,31.25
2023-01-24T07:14:45.755Z,46.00
2023-01-24T07:17:12.772Z,36.00
2023-01-24T07:19:39.790Z,40.25
2023-01-24T07:22:14.032Z,41.25
2023-01-24T07:24:41.953Z,31.75
2023-01-24T07:27:08.937Z,34.25
2023-01-24T07:29:35.696Z,37.75
2023-01-24T07:32:02.575Z,50.50
2023-01-24T07:34:29.487Z,40.00
2023-01-24T07:36:56.272Z,41.25
2023-01-24T07:39:23.041Z,48.50
2023-01-24T07:41:51.562Z,46.00
2023-01-24T07:44:18.291Z,50.50
2023-01-24T07:46:45.060Z,59.00
2023-01-24T07:49:11.875Z,42.75
2023-01-24T07:51:38.641Z,58.25
2023-01-24T07:54:05.449Z,66.75
2023-01-24T07:56:32.433Z,61.25
2023-01-24T07:59:00.054Z,62.25
2023-01-24T08:01:27.759Z,53.25
2023-01-24T08:03:56.770Z,70.75
2023-01-24T08:06:23.790Z,66.25
2023-01-24T08:08:50.615Z,67.25
2023-01-24T08:11:18.687Z,59.75
2023-01-24T08:13:46.145Z,63.25
2023-01-24T08:16:13.469Z,50.00
2023-01-24T08:18:41.801Z,57.50
2023-01-24T08:21:09.006Z,58.75
2023-01-24T08:23:36.226Z,48.75
2023-01-24T08:26:04.054Z,45.25
2023-01-24T08:28:32.404Z,56.25
2023-01-24T08:30:59.652Z,49.00
2023-01-24T08:33:26.750Z,64.75
2023-01-24T08:35:53.802Z,64.75
2023-01-24T08:38:20.635Z,77.00
2023-01-24T08:40:50.163Z,50.00
2023-01-24T08:43:18.110Z,51.75
2023-01-24T08:45:45.214Z,55.75
2023-01-24T08:48:12.095Z,71.50
2023-01-24T08:50:38.969Z,58.25
2023-01-24T08:53:05.714Z,48.75
2023-01-24T08:55:32.512Z,40.25
2023-01-24T08:58:04.483Z,61.75
2023-01-24T09:00:31.964Z,51.75
2023-01-24T09:03:02.405Z,46.50
2023-01-24T09:05:30.931Z,54.25
2023-01-24T09:07:58.480Z,56.75
2023-01-24T09:10:25.418Z,71.00
2023-01-24T09:12:52.188Z,98.25
2023-01-24T09:15:18.911Z,66.50
2023-01-24T09:17:45.803Z,46.00
2023-01-24T09:20:13.214Z,70.50
2023-01-24T09:22:40.184Z,83.50
2023-01-24T09:25:09.147Z,68.75
2023-01-24T09:27:37.187Z,68.00
2023-01-24T09:30:08.168Z,79.50
2023-01-24T09:32:36.363Z,67.50
2023-01-24T09:35:03.830Z,79.00
2023-01-24T09:37:30.581Z,72.75
2023-01-24T09:39:59.174Z,73.50
2023-01-24T09:42:36.943Z,78.50
2023-01-24T09:45:18.621Z,75.25
2023-01-24T09:47:57.515Z,74.00
2023-01-24T09:50:27.403Z,89.00
2023-01-24T09:52:57.099Z,88.75
2023-01-24T09:55:27.141Z,98.25
2023-01-24T09:58:02.829Z,86.25
2023-01-24T10:00:33.149Z,98.25
2023-01-24T10:03:01.842Z,101.75
2023-01-24T10:05:41.117Z,103.25
2023-01-24T10:08:37.698Z,130.00
2023-01-24T10:11:04.453Z,105.00
2023-01-24T10:13:46.027Z,103.50
2023-01-24T10:16:31.641Z,118.50
2023-01-24T10:19:39.746Z,110.75
2023-01-24T10:22:26.557Z,159.25
2023-01-24T10:25:21.476Z,199.75
2023-01-24T10:27:52.566Z,143.25
2023-01-24T10:30:46.062Z,155.00
2023-01-24T10:33:17.723Z,149.50
2023-01-24T10:35:52.836Z,129.50
2023-01-24T10:38:20.112Z,183.25
2023-01-24T10:41:01.878Z,133.75
2023-01-24T10:43:32.334Z,139.50
2023-01-24T10:46:24.555Z,140.00
2023-01-24T10:48:54.406Z,194.50
2023-01-24T10:51:24.369Z,212.25
2023-01-24T10:53:52.034Z,206.50
2023-01-24T10:56:21.248Z,183.75
2023-01-24T10:59:12.396Z,209.00
2023-01-24T11:01:44.127Z,179.25
2023-01-24T11:04:30.016Z,173.00
2023-01-24T11:06:57.402Z,258.00
2023-01-24T11:09:31.529Z,193.00
2023-01-24T11:12:00.506Z,273.50
2023-01-24T11:14:36.947Z,90.25
2023-01-24T11:17:06.987Z,107.75
2023-01-24T11:19:36.845Z,110.00
2023-01-24T11:22:21.784Z,83.00
2023-01-24T11:24:48.558Z,85.50
2023-01-24T11:27:16.627Z,76.50
2023-01-24T11:29:43.699Z,80.75
2023-01-24T11:32:27.754Z,62.25
2023-01-24T11:35:03.734Z,64.75
2023-01-24T11:37:45.604Z,45.25
2023-01-24T11:40:22.351Z,40.50
2023-01-24T11:43:20.830Z,36.75
2023-01-24T11:45:53.362Z,36.25
2023-01-24T11:48:23.730Z,67.25
2023-01-24T11:51:18.926Z,61.25
2023-01-24T11:53:48.338Z,66.25
2023-01-24T11:56:29.394Z,62.00
2023-01-24T11:59:12.677Z,67.50
2023-01-24T12:02:03.164Z,59.75
2023-01-24T12:04:35.800Z,73.50
2023-01-24T12:07:06.551Z,81.00
2023-01-24T12:09:49.760Z,74.00
2023-01-24T12:12:55.491Z,86.75
2023-01-24T12:15:32.904Z,100.00
2023-01-24T12:18:35.907Z,96.75
2023-01-24T12:21:12.684Z,97.50
2023-01-24T12:24:03.773Z,127.50
2023-01-24T12:26:37.820Z,124.75
2023-01-24T12:29:17.375Z,126.50
2023-01-24T12:31:48.697Z,122.00
2023-01-24T12:34:30.331Z,122.25
2023-01-24T12:37:26.300Z,101.00
2023-01-24T12:40:17.235Z,85.00
2023-01-24T12:43:02.532Z,101.25
2023-01-24T12:45:55.315Z,89.50
2023-01-24T12:48:40.545Z,76.75
2023-01-24T12:51:28.982Z,83.25
2023-01-24T12:54:10.557Z,89.00
2023-01-24T12:57:00.354Z,105.50
2023-01-24T12:59:29.510Z,101.00
2023-01-24T13:02:25.501Z,113.00
2023-01-24T13:05:10.407Z,119.25
2023-01-24T13:07:39.780Z,152.00
2023-01-24T13:10:31.791Z,132.25
2023-01-24T13:13:00.311Z,188.00
2023-01-24T13:15:53.095Z,159.50
2023-01-24T13:18:38.138Z,141.00
2023-01-24T13:21:57.343Z,146.75
2023-01-24T13:25:12.224Z,168.50
2023-01-24T13:27:53.571Z,188.50
2023-01-24T13:30:29.754Z,157.50
2023-01-24T13:33:02.056Z,145.25
2023-01-24T13:35:29.652Z,156.00
2023-01-24T13:38:07.240Z,124.75
2023-01-24T13:40:37.203Z,115.25
2023-01-24T13:43:25.145Z,90.25
2023-01-24T13:45:52.707Z,127.75
2023-01-24T13:48:46.381Z,123.75
2023-01-24T13:51:21.979Z,126.50
2023-01-24T13:54:18.180Z,127.00
2023-01-24T13:57:07.389Z,135.75
2023-01-24T13:59:38.941Z,164.25
2023-01-24T14:02:35.974Z,150.75
2023-01-24T14:05:03.317Z,307.50
2023-01-24T14:07:42.681Z,230.50
2023-01-24T14:10:10.837Z,125.25
2023-01-24T14:12:40.192Z,89.75
2023-01-24T14:15:15.564Z,123.75
2023-01-24T14:17:43.355Z,348.25
2023-01-24T14:20:43.159Z,222.00
2023-01-24T14:23:25.282Z,140.00
2023-01-24T14:25:57.536Z,88.25
2023-01-24T14:28:33.410Z,86.50
2023-01-24T14:31:08.863Z,104.25
2023-01-24T14:33:46.418Z,96.75
2023-01-24T14:36:23.351Z,87.00
2023-01-24T14:39:20.752Z,108.25
2023-01-24T14:41:53.728Z,86.50
2023-01-24T14:44:30.819Z,89.75
2023-01-24T14:47:06.590Z,30.75
2023-01-24T14:49:35.884Z,40.25
2023-01-24T14:52:20.035Z,42.75
2023-01-24T14:54:58.316Z,66.50
2023-01-24T14:57:33.126Z,60.25
2023-01-24T15:00:01.006Z,84.00
2023-01-24T15:02:28.448Z,63.50
2023-01-24T15:04:55.566Z,50.50
2023-01-24T15:07:23.152Z,86.50
2023-01-24T15:09:50.109Z,87.75
2023-01-24T15:12:29.020Z,42.75
2023-01-24T15:14:57.213Z,42.75
2023-01-24T15:17:27.269Z,124.75
2023-01-24T15:19:59.501Z,111.50
2023-01-24T15:22:28.578Z,151.25
2023-01-24T15:24:59.996Z,120.50
2023-01-24T15:27:30.512Z,80.00
2023-01-24T15:30:19.150Z,136.00
2023-01-24T15:33:10.089Z,65.25
2023-01-24T15:35:39.571Z,54.25
2023-01-24T15:38:06.373Z,62.00
2023-01-24T15:40:35.419Z,45.00
2023-01-24T15:43:21.623Z,74.00
2023-01-24T15:46:16.729Z,82.00
2023-01-24T15:49:01.703Z,79.50
2023-01-24T15:51:37.660Z,82.50
2023-01-24T15:54:12.964Z,77.75
2023-01-24T15:56:52.547Z,144.75
2023-01-24T15:59:21.283Z,70.00
2023-01-24T16:01:48.260Z,87.50
2023-01-24T16:04:20.728Z,98.75
2023-01-24T16:06:47.885Z,135.25
2023-01-24T16:09:15.312Z,65.00
2023-01-24T16:11:45.402Z,165.50
2023-01-24T16:14:20.662Z,103.25
2023-01-24T16:16:48.699Z,102.00
2023-01-24T16:19:22.803Z,73.75
2023-01-24T16:21:49.982Z,96.75
2023-01-24T16:24:17.416Z,56.50
2023-01-24T16:26:52.971Z,82.00
2023-01-24T16:29:24.216Z,111.50
2023-01-24T16:31:51.335Z,95.25
2023-01-24T16:34:19.357Z,93.25
2023-01-24T16:36:46.876Z,80.00
2023-01-24T16:39:22.251Z,46.75
2023-01-24T16:41:50.804Z,26.75
2023-01-24T16:44:17.988Z,55.00
2023-01-24T16:46:50.497Z,62.75
2023-01-24T16:49:17.933Z,81.75
2023-01-24T16:51:46.119Z,73.75
2023-01-24T16:54:13.931Z,75.75
2023-01-24T16:56:43.582Z,54.00
2023-01-24T16:59:10.738Z,72.00
2023-01-24T17:01:37.752Z,91.25
2023-01-24T17:04:05.322Z,108.50
2023-01-24T17:06:32.759Z,99.75
2023-01-24T17:08:59.567Z,104.50
2023-01-24T17:11:26.456Z,147.50
2023-01-24T17:13:53.244Z,45.25
2023-01-24T17:16:20.218Z,78.25
2023-01-24T17:18:47.112Z,86.25
2023-01-24T17:21:16.108Z,85.75
2023-01-24T17:23:43.798Z,89.50
2023-01-24T17:26:13.766Z,101.25
2023-01-24T17:28:41.944Z,54.25
2023-01-24T17:31:13.297Z,73.50
2023-01-24T17:33:41.059Z,107.25
2023-01-24T17:36:08.573Z,98.75
2023-01-24T17:38:36.113Z,84.00
2023-01-24T17:41:03.036Z,142.25
2023-01-24T17:43:38.128Z,147.00
2023-01-24T17:46:10.773Z,110.75
2023-01-24T17:48:38.133Z,137.25
2023-01-24T17:51:14.285Z,154.50
2023-01-24T17:53:41.888Z,99.50
2023-01-24T17:56:10.775Z,107.75
2023-01-24T17:58:37.640Z,131.25
2023-01-24T18:01:05.464Z,159.50
2023-01-24T18:03:32.457Z,125.50
2023-01-24T18:06:02.638Z,97.00
2023-01-24T18:08:29.603Z,120.25
2023-01-24T18:10:56.645Z,99.25
2023-01-24T18:13:23.995Z,100.75
2023-01-24T18:16:08.784Z,142.25
2023-01-24T18:18:37.554Z,103.50
2023-01-24T18:21:15.163Z,182.00
2023-01-24T18:23:42.359Z,141.25
2023-01-24T18:26:09.708Z,200.25
2023-01-24T18:28:37.483Z,108.50
2023-01-24T18:31:10.250Z,151.50
2023-01-24T18:33:38.431Z,103.50
2023-01-24T18:36:13.226Z,103.25
2023-01-24T18:38:40.047Z,84.50
2023-01-24T18:41:07.097Z,64.00
2023-01-24T18:43:37.275Z,103.00
2023-01-24T18:46:09.149Z,88.25
2023-01-24T18:48:37.194Z,79.50
2023-01-24T18:51:15.985Z,88.75
2023-01-24T18:53:43.872Z,78.50
2023-01-24T18:56:11.217Z,108.50
2023-01-24T18:58:39.202Z,87.00
2023-01-24T19:01:16.707Z,89.50
2023-01-24T19:03:43.787Z,87.50
2023-01-24T19:06:11.111Z,70.25
2023-01-24T19:08:48.720Z,90.00
2023-01-24T19:11:24.347Z,88.25
2023-01-24T19:13:52.525Z,55.75
2023-01-24T19:16:19.319Z,91.50
2023-01-24T19:18:47.389Z,84.25
2023-01-24T19:21:15.803Z,79.00
2023-01-24T19:23:44.430Z,62.00
2023-01-24T19:26:15.719Z,76.50
2023-01-24T19:28:42.599Z,92.25
2023-01-24T19:31:09.432Z,97.25
2023-01-24T19:33:36.218Z,92.00
2023-01-24T19:36:10.193Z,93.75
2023-01-24T19:38:37.060Z,96.50
2023-01-24T19:41:05.840Z,93.00
2023-01-24T19:43:35.136Z,92.25
2023-01-24T19:46:10.831Z,98.50
2023-01-24T19:48:39.121Z,128.50
2023-01-24T19:51:08.776Z,122.00
2023-01-24T19:53:35.744Z,103.50
2023-01-24T19:56:07.676Z,138.75
2023-01-24T19:58:35.030Z,107.50
2023-01-24T20:01:12.347Z,89.50
2023-01-24T20:03:39.638Z,97.00
2023-01-24T20:06:15.793Z,96.00
2023-01-24T20:08:50.239Z,98.50
2023-01-24T20:11:18.100Z,100.00
2023-01-24T20:13:46.589Z,107.75
2023-01-24T20:16:17.712Z,102.25
2023-01-24T20:18:53.430Z,130.25
2023-01-24T20:21:20.966Z,124.00
2023-01-24T20:23:47.873Z,87.50
2023-01-24T20:26:15.962Z,105.25
2023-01-24T20:28:43.223Z,124.00
2023-01-24T20:31:13.240Z,107.00
2023-01-24T20:33:40.532Z,88.50
2023-01-24T20:36:13.085Z,83.75
2023-01-24T20:38:40.519Z,86.50
2023-01-24T20:41:11.753Z,82.75
2023-01-24T20:43:39.647Z,84.25
2023-01-24T20:46:11.628Z,79.75
2023-01-24T20:48:38.925Z,81.25
2023-01-24T20:51:07.558Z,85.25
2023-01-24T20:53:34.921Z,83.25
2023-01-24T20:56:07.297Z,85.25
2023-01-24T20:58:34.774Z,79.75
2023-01-24T21:01:15.519Z,76.75
2023-01-24T21:03:45.254Z,97.75
2023-01-24T21:06:14.957Z,85.00
2023-01-24T21:08:43.412Z,128.25
2023-01-24T21:11:18.495Z,128.00
2023-01-24T21:13:51.337Z,124.75
2023-01-24T21:16:18.261Z,130.00
2023-01-24T21:18:52.727Z,93.25
2023-01-24T21:21:21.771Z,92.75
2023-01-24T21:23:48.649Z,83.75
2023-01-24T21:26:18.917Z,80.75
2023-01-24T21:28:49.743Z,110.50
2023-01-24T21:31:19.904Z,108.50
2023-01-24T21:33:47.331Z,109.75
2023-01-24T21:36:15.041Z,100.25
2023-01-24T21:38:42.476Z,142.50
2023-01-24T21:41:32.126Z,126.00
2023-01-24T21:43:59.887Z,194.00
2023-01-24T21:46:27.668Z,128.75
2023-01-24T21:49:06.948Z,171.50
2023-01-24T21:51:36.366Z,146.00
2023-01-24T21:54:03.418Z,131.50
2023-01-24T21:56:49.878Z,155.25
2023-01-24T21:59:16.995Z,120.00
2023-01-24T22:01:44.410Z,120.00
2023-01-24T22:04:11.201Z,118.00
2023-01-24T22:06:38.056Z,119.50
2023-01-24T22:09:04.804Z,83.75
2023-01-24T22:11:31.957Z,80.25
2023-01-24T22:13:59.233Z,71.25
2023-01-24T22:16:26.739Z,68.00
2023-01-24T22:18:53.891Z,70.50
2023-01-24T22:21:43.108Z,143.75
2023-01-24T22:24:17.105Z,68.00
2023-01-24T22:26:57.436Z,65.25
2023-01-24T22:29:24.532Z,73.00
2023-01-24T22:31:51.579Z,72.75
2023-01-24T22:34:22.385Z,71.25
2023-01-24T22:37:12.076Z,71.75
2023-01-24T22:39:38.860Z,68.75
2023-01-24T22:42:05.596Z,71.75
2023-01-24T22:44:32.381Z,73.50
2023-01-24T22:46:59.188Z,71.75
2023-01-24T22:49:26.007Z,80.25
2023-01-24T22:51:52.810Z,73.25
2023-01-24T22:54:19.618Z,66.00
2023-01-24T22:56:46.365Z,74.25
2023-01-24T22:59:13.133Z,58.25
2023-01-24T23:01:39.916Z,35.50
2023-01-24T23:04:07.829Z,74.25
2023-01-24T23:06:35.879Z,62.00
2023-01-24T23:09:03.082Z,66.25
2023-01-24T23:11:29.880Z,63.00
2023-01-24T23:14:15.211Z,61.50
2023-01-24T23:17:00.704Z,37.50
2023-01-24T23:19:52.390Z,47.75
2023-01-24T23:22:22.293Z,67.75
2023-01-24T23:24:50.714Z,59.25
2023-01-24T23:27:22.850Z,70.25
2023-01-24T23:29:55.995Z,64.75
2023-01-24T23:32:29.841Z,70.50
2023-01-24T23:34:59.438Z,58.25
2023-01-24T23:37:31.728Z,98.25
2023-01-24T23:39:59.482Z,49.75
2023-01-24T23:42:28.288Z,49.75
2023-01-24T23:44:55.864Z,93.75
2023-01-24T23:47:23.103Z,64.75
2023-01-24T23:49:51.112Z,38.00
2023-01-24T23:52:19.255Z,63.25
2023-01-24T23:54:46.495Z,55.75
2023-01-24T23:57:14.154Z,37.75
2023-01-24T23:59:40.957Z,50.00
